37 Rocks — ZM3003 — position and weather

sailwx.info

Track history (hours):
 
Tides and Currents Weather Stations Pressure Air Temp Water Temp Dewpoint Dewpoint Depression Visibility Wind Speed Wind Dir Waves Ship Positions

37 Rocks

Last reported at 2014-Jul-01 10:09 UTC. Time now 2014-Jul-23 01:18 UTC.
Position N 37°47' E 023°20'.
Warning: this ship's position is 21 days out of date.

Length 17 m.

Type: Sailing vessel. MMSI: 512003230.

Date/timePositionNaut miles runAvg speedWind from/ knotsBaromVisibWave heightAir tempDewpointWater temp
2014-Jul-01 10:09N 37°47' E 023°20'4 7.4
2014-Jul-01 09:33N 37°45' E 023°25'  
2014-Jun-27 14:21N 37°19' E 024°27'5 5.9
2014-Jun-27 13:31N 37°20' E 024°33'7 6.9
2014-Jun-27 12:33N 37°21' E 024°41'6 5.9
2014-Jun-27 11:30N 37°22' E 024°49'6 6.2
2014-Jun-27 10:32N 37°22' E 024°57'6 6.1
2014-Jun-27 09:33N 37°22' E 025°04'6 6.2
2014-Jun-27 08:32N 37°22' E 025°12'7 7.2
2014-Jun-27 07:33N 37°24' E 025°21'1 0.0
2014-Jun-26 11:14N 37°25' E 025°21'3 4.6
2014-Jun-26 10:33N 37°21' E 025°21'7 7.3
2014-Jun-26 09:33N 37°14' E 025°20'8 7.8
2014-Jun-26 08:32N 37°06' E 025°19'8 8.0
2014-Jun-26 07:33N 36°59' E 025°18'8 7.8
2014-Jun-26 06:33N 36°51' E 025°16'8 7.6
2014-Jun-26 05:33N 36°43' E 025°14'3 0.1
2014-Jun-25 09:06N 36°43' E 025°11'3 4.8
2014-Jun-25 08:29N 36°42' E 025°14'2 0.7
2014-Jun-25 05:33N 36°43' E 025°17'0 0.0
2014-Jun-24 13:30N 36°43' E 025°18'4 3.7
2014-Jun-24 12:32N 36°45' E 025°14'6 6.4
2014-Jun-24 11:32N 36°51' E 025°13'6 5.9
2014-Jun-24 10:26N 36°57' E 025°16'5 5.2
2014-Jun-24 09:30N 37°02' E 025°18'5 4.8
2014-Jun-24 08:33N 37°06' E 025°20'5 4.8
2014-Jun-24 07:33N 37°11' E 025°21'6 5.5
2014-Jun-24 06:33N 37°16' E 025°24'5 5.2
2014-Jun-24 05:33N 37°21' E 025°22'4 0.2
2014-Jun-23 12:33N 37°24' E 025°21'0 0.0
2014-Jun-23 11:33N 37°24' E 025°21'0 0.0
2014-Jun-23 10:33N 37°24' E 025°21'0 0.0
2014-Jun-22 14:11N 37°25' E 025°21'0 0.0
2014-Jun-22 13:11N 37°25' E 025°21'0 0.0
2014-Jun-22 12:29N 37°25' E 025°21'0 0.1
2014-Jun-22 11:32N 37°24' E 025°21'3 3.2
2014-Jun-22 10:32N 37°26' E 025°18'2 2.1
2014-Jun-22 09:31N 37°28' E 025°20'0 0.0
2014-Jun-21 16:33N 37°28' E 025°20'2 1.8
2014-Jun-21 15:33N 37°27' E 025°18'8 7.8
2014-Jun-21 14:33N 37°19' E 025°18'8 8.0
2014-Jun-21 13:33N 37°11' E 025°18'7 6.6
2014-Jun-21 12:28N 37°04' E 025°17'4 4.1
2014-Jun-21 11:30N 36°60' E 025°17'4 4.6
2014-Jun-21 10:31N 36°55' E 025°15'  
Track history (hours):
 
Tides and Currents Weather Stations Pressure Air Temp Water Temp Dewpoint Dewpoint Depression Visibility Wind Speed Wind Dir Waves Ship Positions

37 Rocks

Last reported at 2014-Jul-01 10:09 UTC. Time now 2014-Jul-23 01:18 UTC.
Position N 37°47' E 023°20'.
Warning: this ship's position is 21 days out of date.

Length 17 m.

Type: Sailing vessel. MMSI: 512003230.

Date/timePositionNaut miles runAvg speedWind from/ knotsBaromVisibWave heightAir tempDewpointWater temp
2014-Jul-01 10:09N 37°47' E 023°20'4 7.4
2014-Jul-01 09:33N 37°45' E 023°25'  
2014-Jun-27 14:21N 37°19' E 024°27'5 5.9
2014-Jun-27 13:31N 37°20' E 024°33'7 6.9
2014-Jun-27 12:33N 37°21' E 024°41'6 5.9
2014-Jun-27 11:30N 37°22' E 024°49'6 6.2
2014-Jun-27 10:32N 37°22' E 024°57'6 6.1
2014-Jun-27 09:33N 37°22' E 025°04'6 6.2
2014-Jun-27 08:32N 37°22' E 025°12'7 7.2
2014-Jun-27 07:33N 37°24' E 025°21'1 0.0
2014-Jun-26 11:14N 37°25' E 025°21'3 4.6
2014-Jun-26 10:33N 37°21' E 025°21'7 7.3
2014-Jun-26 09:33N 37°14' E 025°20'8 7.8
2014-Jun-26 08:32N 37°06' E 025°19'8 8.0
2014-Jun-26 07:33N 36°59' E 025°18'8 7.8
2014-Jun-26 06:33N 36°51' E 025°16'8 7.6
2014-Jun-26 05:33N 36°43' E 025°14'3 0.1
2014-Jun-25 09:06N 36°43' E 025°11'3 4.8
2014-Jun-25 08:29N 36°42' E 025°14'2 0.7
2014-Jun-25 05:33N 36°43' E 025°17'0 0.0
2014-Jun-24 13:30N 36°43' E 025°18'4 3.7
2014-Jun-24 12:32N 36°45' E 025°14'6 6.4
2014-Jun-24 11:32N 36°51' E 025°13'6 5.9
2014-Jun-24 10:26N 36°57' E 025°16'5 5.2
2014-Jun-24 09:30N 37°02' E 025°18'5 4.8
2014-Jun-24 08:33N 37°06' E 025°20'5 4.8
2014-Jun-24 07:33N 37°11' E 025°21'6 5.5
2014-Jun-24 06:33N 37°16' E 025°24'5 5.2
2014-Jun-24 05:33N 37°21' E 025°22'4 0.2
2014-Jun-23 12:33N 37°24' E 025°21'0 0.0
2014-Jun-23 11:33N 37°24' E 025°21'0 0.0
2014-Jun-23 10:33N 37°24' E 025°21'0 0.0
2014-Jun-22 14:11N 37°25' E 025°21'0 0.0
2014-Jun-22 13:11N 37°25' E 025°21'0 0.0
2014-Jun-22 12:29N 37°25' E 025°21'0 0.1
2014-Jun-22 11:32N 37°24' E 025°21'3 3.2
2014-Jun-22 10:32N 37°26' E 025°18'2 2.1
2014-Jun-22 09:31N 37°28' E 025°20'0 0.0
2014-Jun-21 16:33N 37°28' E 025°20'2 1.8
2014-Jun-21 15:33N 37°27' E 025°18'8 7.8
2014-Jun-21 14:33N 37°19' E 025°18'8 8.0
2014-Jun-21 13:33N 37°11' E 025°18'7 6.6
2014-Jun-21 12:28N 37°04' E 025°17'4 4.1
2014-Jun-21 11:30N 36°60' E 025°17'4 4.6
2014-Jun-21 10:31N 36°55' E 025°15'  

Dump ship's entire track history